createdAt,value
2018-09-05T00:00:00.931Z,99.99
2018-09-05T00:01:07.867Z,99.99
2018-09-05T00:02:00.927Z,99.99
2018-09-05T00:03:00.935Z,99.99
2018-09-05T00:04:00.865Z,99.99
2018-09-05T00:05:01.489Z,99.99
2018-09-05T00:06:00.934Z,99.99
2018-09-05T00:07:00.853Z,99.99
2018-09-05T00:08:00.927Z,99.99
2018-09-05T00:09:00.934Z,99.99
2018-09-05T00:10:28.617Z,99.99
2018-09-05T00:11:00.921Z,99.99
2018-09-05T00:12:00.925Z,99.99
2018-09-05T00:13:00.859Z,99.99
2018-09-05T00:14:00.884Z,99.99
2018-09-05T00:15:00.883Z,99.99
2018-09-05T00:16:00.886Z,99.99
2018-09-05T00:17:00.862Z,99.99
2018-09-05T00:18:00.883Z,99.99
2018-09-05T00:19:00.865Z,99.99
2018-09-05T00:20:00.899Z,99.99
2018-09-05T00:21:00.864Z,99.99
2018-09-05T00:22:00.883Z,99.99
2018-09-05T00:23:03.892Z,99.99
2018-09-05T00:24:00.863Z,99.99
2018-09-05T00:25:00.884Z,99.99
2018-09-05T00:26:00.885Z,99.99
2018-09-05T00:27:00.853Z,99.99
2018-09-05T00:28:00.885Z,99.99
2018-09-05T00:29:21.884Z,99.99
2018-09-05T00:30:00.889Z,99.99
2018-09-05T00:31:00.884Z,99.99
2018-09-05T00:32:00.889Z,99.99
2018-09-05T00:33:00.885Z,99.99
2018-09-05T00:34:00.889Z,99.99
2018-09-05T00:35:00.884Z,99.99
2018-09-05T00:36:00.884Z,99.99
2018-09-05T00:37:03.542Z,99.99
2018-09-05T00:38:00.890Z,99.99
2018-09-05T00:39:01.574Z,99.99
2018-09-05T00:40:15.564Z,99.99
2018-09-05T00:41:00.885Z,99.99
2018-09-05T00:42:00.884Z,99.99
2018-09-05T00:43:00.889Z,99.99
2018-09-05T00:44:00.859Z,99.99
2018-09-05T00:45:00.891Z,99.99
2018-09-05T00:46:00.889Z,99.99
2018-09-05T00:47:00.856Z,99.99
2018-09-05T00:48:00.852Z,99.99
2018-09-05T00:49:00.855Z,99.99
2018-09-05T00:50:00.855Z,99.99
2018-09-05T00:51:00.888Z,99.99
2018-09-05T00:52:00.854Z,99.99
2018-09-05T00:53:00.853Z,99.99
2018-09-05T00:54:00.853Z,99.99
2018-09-05T00:55:00.852Z,99.99
2018-09-05T00:56:00.853Z,99.99
2018-09-05T00:57:00.852Z,99.99
2018-09-05T00:58:00.854Z,99.99
2018-09-05T00:59:00.854Z,99.99
2018-09-05T01:01:34.304Z,99.99
2018-09-05T01:02:34.264Z,99.99
2018-09-05T01:04:28.934Z,99.99
2018-09-05T01:05:28.934Z,99.99
2018-09-05T01:06:28.933Z,99.99
2018-09-05T01:07:28.932Z,99.99
2018-09-05T01:08:28.933Z,99.99
2018-09-05T01:09:28.969Z,99.99
2018-09-05T01:10:28.933Z,99.99
2018-09-05T01:11:28.933Z,99.99
2018-09-05T01:12:28.932Z,99.99
2018-09-05T01:13:28.930Z,99.99
2018-09-05T01:14:28.933Z,99.99
2018-09-05T01:15:28.934Z,99.99
2018-09-05T01:16:28.906Z,99.99
2018-09-05T01:17:28.933Z,99.99
2018-09-05T01:18:28.924Z,99.99
2018-09-05T01:19:28.932Z,99.99
2018-09-05T01:20:28.924Z,99.99
2018-09-05T01:21:28.924Z,99.99
2018-09-05T01:22:28.930Z,99.99
2018-09-05T01:23:28.932Z,99.99
2018-09-05T01:24:28.974Z,99.99
2018-09-05T01:25:28.935Z,99.99
2018-09-05T01:26:28.932Z,99.99
2018-09-05T01:27:28.926Z,99.99
2018-09-05T01:28:28.924Z,99.99
2018-09-05T01:29:28.925Z,99.99
2018-09-05T01:30:28.933Z,99.99
2018-09-05T01:31:28.935Z,99.99
2018-09-05T01:32:28.924Z,99.99
2018-09-05T01:33:28.926Z,99.99
2018-09-05T01:34:28.893Z,99.99
2018-09-05T01:35:28.929Z,99.99
2018-09-05T01:36:28.933Z,99.99
2018-09-05T01:37:28.929Z,99.99
2018-09-05T01:38:28.934Z,99.99
2018-09-05T01:39:28.935Z,99.99
2018-09-05T01:40:28.932Z,99.99
2018-09-05T01:41:28.932Z,99.99
2018-09-05T01:42:28.932Z,99.99
2018-09-05T01:43:28.932Z,99.99
2018-09-05T01:44:28.932Z,99.99
2018-09-05T01:45:28.893Z,99.99
2018-09-05T01:46:28.893Z,99.99
2018-09-05T01:47:28.892Z,99.99
2018-09-05T01:48:29.693Z,99.99
2018-09-05T01:49:28.933Z,99.99
2018-09-05T01:50:28.929Z,99.99
2018-09-05T01:51:28.893Z,99.99
2018-09-05T01:52:28.892Z,99.99
2018-09-05T01:53:28.908Z,99.99
2018-09-05T01:54:28.906Z,99.99
2018-09-05T01:55:29.633Z,99.99
2018-09-05T01:56:29.626Z,99.99
2018-09-05T01:57:28.959Z,99.99
2018-09-05T01:58:28.956Z,99.99
2018-09-05T01:59:28.970Z,99.99
2018-09-05T02:00:28.946Z,99.99
2018-09-05T02:01:28.868Z,99.99
2018-09-05T02:02:28.956Z,99.99
2018-09-05T02:03:28.950Z,99.99
2018-09-05T02:04:28.958Z,99.99
2018-09-05T02:05:28.960Z,99.99
2018-09-05T02:06:28.947Z,99.99
2018-09-05T02:07:28.866Z,99.99
2018-09-05T02:08:28.972Z,99.99
2018-09-05T02:09:28.957Z,99.99
2018-09-05T02:10:28.940Z,99.99
2018-09-05T02:11:28.948Z,99.99
2018-09-05T02:12:28.943Z,99.99
2018-09-05T02:13:29.937Z,99.99
2018-09-05T02:14:28.941Z,99.99
2018-09-05T02:15:30.949Z,99.99
2018-09-05T02:16:28.950Z,99.99
2018-09-05T02:17:28.944Z,99.99
2018-09-05T02:18:28.949Z,99.99
2018-09-05T02:19:28.936Z,99.99
2018-09-05T02:20:29.935Z,99.99
2018-09-05T02:21:28.930Z,99.99
2018-09-05T02:22:28.926Z,99.99
2018-09-05T02:23:29.929Z,99.99
2018-09-05T02:24:28.936Z,99.99
2018-09-05T02:25:28.935Z,99.99
2018-09-05T02:26:28.940Z,99.99
2018-09-05T02:27:28.939Z,99.99
2018-09-05T02:28:29.649Z,99.99
2018-09-05T02:29:29.780Z,99.99
2018-09-05T02:30:28.929Z,99.99
2018-09-05T02:31:28.924Z,99.99
2018-09-05T02:32:28.920Z,99.99
2018-09-05T02:33:30.640Z,99.99
2018-09-05T02:34:28.925Z,99.99
2018-09-05T02:35:28.925Z,99.99
2018-09-05T02:36:28.934Z,99.99
2018-09-05T02:37:29.922Z,99.99
2018-09-05T02:38:30.911Z,99.99
2018-09-05T02:39:28.927Z,99.99
2018-09-05T02:40:28.994Z,99.99
2018-09-05T02:41:28.916Z,99.99
2018-09-05T02:42:28.914Z,99.99
2018-09-05T02:43:28.914Z,99.99
2018-09-05T02:44:28.907Z,99.99
2018-09-05T02:45:28.918Z,99.99
2018-09-05T02:46:28.915Z,99.99
2018-09-05T02:47:28.915Z,99.99
2018-09-05T02:48:28.910Z,99.99
2018-09-05T02:49:28.909Z,99.99
2018-09-05T02:50:28.907Z,99.99
2018-09-05T02:51:28.898Z,99.99
2018-09-05T02:52:28.901Z,99.99
2018-09-05T02:53:28.907Z,99.99
2018-09-05T02:54:28.902Z,99.99
2018-09-05T02:55:28.902Z,99.99
2018-09-05T02:56:28.894Z,99.99
2018-09-05T02:57:30.899Z,99.99
2018-09-05T02:58:30.899Z,99.99
2018-09-05T02:59:30.904Z,99.99
2018-09-05T03:00:28.908Z,99.99
2018-09-05T03:01:28.901Z,99.99
2018-09-05T03:02:28.906Z,99.99
2018-09-05T03:03:30.893Z,99.99
2018-09-05T03:04:28.887Z,99.99
2018-09-05T03:05:28.896Z,99.99
2018-09-05T03:06:28.888Z,99.99
2018-09-05T03:07:28.887Z,99.99
2018-09-05T03:08:28.889Z,99.99
2018-09-05T03:09:28.995Z,99.99
2018-09-05T03:10:28.887Z,99.99
2018-09-05T03:11:29.646Z,99.99
2018-09-05T03:12:28.888Z,99.99
2018-09-05T03:13:29.652Z,99.99
2018-09-05T03:14:28.881Z,99.99
2018-09-05T03:15:28.879Z,99.99
2018-09-05T03:16:28.882Z,99.99
2018-09-05T03:17:28.880Z,99.99
2018-09-05T03:18:28.887Z,99.99
2018-09-05T03:19:28.883Z,99.99
2018-09-05T03:20:28.881Z,99.99
2018-09-05T03:21:28.873Z,99.99
2018-09-05T03:22:28.877Z,99.99
2018-09-05T03:23:28.928Z,99.99
2018-09-05T03:24:28.887Z,99.99
2018-09-05T03:25:28.870Z,99.99
2018-09-05T03:26:28.867Z,99.99
2018-09-05T03:27:28.877Z,99.99
2018-09-05T03:28:28.868Z,99.99
2018-09-05T03:29:28.870Z,99.99
2018-09-05T03:30:28.872Z,99.99
2018-09-05T03:31:28.884Z,99.99
2018-09-05T03:32:28.974Z,99.99
2018-09-05T03:33:28.855Z,99.99
2018-09-05T03:34:28.860Z,99.99
2018-09-05T03:35:29.861Z,99.99
2018-09-05T03:36:28.858Z,99.99
2018-09-05T03:37:28.861Z,99.99
2018-09-05T03:38:28.868Z,99.99
2018-09-05T03:39:28.862Z,99.99
2018-09-05T03:40:28.865Z,99.99
2018-09-05T03:41:30.859Z,99.99
2018-09-05T03:42:28.850Z,99.99
2018-09-05T03:43:28.852Z,99.99
2018-09-05T03:44:28.855Z,99.99
2018-09-05T03:45:28.850Z,99.99
2018-09-05T03:46:28.844Z,99.99
2018-09-05T03:47:28.855Z,99.99
2018-09-05T03:48:28.844Z,99.99
2018-09-05T03:49:30.839Z,99.99
2018-09-05T03:50:28.843Z,99.99
2018-09-05T03:51:29.847Z,99.99
2018-09-05T03:52:28.840Z,99.99
2018-09-05T03:53:28.837Z,99.99
2018-09-05T03:54:28.836Z,99.99
2018-09-05T03:55:30.841Z,99.99
2018-09-05T03:56:28.826Z,99.99
2018-09-05T03:57:28.840Z,99.99
2018-09-05T03:58:28.825Z,99.99
2018-09-05T03:59:29.827Z,99.99
2018-09-05T04:00:29.826Z,99.99
2018-09-05T04:01:28.833Z,99.99
2018-09-05T04:02:29.826Z,99.99
2018-09-05T04:03:28.827Z,99.99
2018-09-05T04:04:28.815Z,99.99
2018-09-05T04:05:28.823Z,99.99
2018-09-05T04:06:28.823Z,99.99
2018-09-05T04:07:28.818Z,99.99
2018-09-05T04:08:28.820Z,99.99
2018-09-05T04:09:29.809Z,99.99
2018-09-05T04:10:30.817Z,99.99
2018-09-05T04:11:29.821Z,99.99
2018-09-05T04:12:28.801Z,99.99
2018-09-05T04:13:30.817Z,99.99
2018-09-05T04:14:28.806Z,99.99
2018-09-05T04:15:28.806Z,99.99
2018-09-05T04:16:29.809Z,99.99
2018-09-05T04:17:28.811Z,99.99
2018-09-05T04:18:28.805Z,99.99
2018-09-05T04:19:28.809Z,99.99
2018-09-05T04:20:28.799Z,99.99
2018-09-05T04:21:28.820Z,99.99
2018-09-05T04:22:28.806Z,99.99
2018-09-05T04:23:28.839Z,99.99
2018-09-05T04:24:28.825Z,99.99
2018-09-05T04:25:28.797Z,99.99
2018-09-05T04:26:28.816Z,99.99
2018-09-05T04:27:28.795Z,99.99
2018-09-05T04:28:28.790Z,99.99
2018-09-05T04:29:28.840Z,99.99
2018-09-05T04:30:28.797Z,99.99
2018-09-05T04:31:28.796Z,99.99
2018-09-05T04:32:28.794Z,99.99
2018-09-05T04:33:28.794Z,99.99
2018-09-05T04:34:29.671Z,99.99
2018-09-05T04:35:28.782Z,99.99
2018-09-05T04:36:28.781Z,99.99
2018-09-05T04:37:28.774Z,99.99
2018-09-05T04:38:28.791Z,99.99
2018-09-05T04:39:28.777Z,99.99
2018-09-05T04:40:28.784Z,99.99
2018-09-05T04:41:28.772Z,99.99
2018-09-05T04:42:28.770Z,99.99
2018-09-05T04:43:28.769Z,99.99
2018-09-05T04:44:29.692Z,99.99
2018-09-05T04:45:29.772Z,99.99
2018-09-05T04:46:28.769Z,99.99
2018-09-05T04:47:28.774Z,99.99
2018-09-05T04:48:28.775Z,99.99
2018-09-05T04:49:29.802Z,99.99
2018-09-05T04:50:29.755Z,99.99
2018-09-05T04:51:28.764Z,99.99
2018-09-05T04:52:28.760Z,99.99
2018-09-05T04:53:28.762Z,99.99
2018-09-05T04:54:29.334Z,99.99
2018-09-05T04:55:28.753Z,99.99
2018-09-05T04:56:28.766Z,99.99
2018-09-05T04:57:28.756Z,99.99
2018-09-05T04:58:28.847Z,99.99
2018-09-05T04:59:28.764Z,99.99
2018-09-05T05:00:28.743Z,99.99
2018-09-05T05:01:28.761Z,99.99
2018-09-05T05:02:28.757Z,99.99
2018-09-05T05:03:28.740Z,99.99
2018-09-05T05:04:28.803Z,99.99
2018-09-05T05:05:28.805Z,99.99
2018-09-05T05:06:28.751Z,99.99
2018-09-05T05:07:28.750Z,99.99
2018-09-05T05:08:29.327Z,99.99
2018-09-05T05:09:28.825Z,99.99
2018-09-05T05:10:29.707Z,99.99
2018-09-05T05:11:28.803Z,99.99
2018-09-05T05:12:49.829Z,99.99
2018-09-05T05:13:28.829Z,99.99
2018-09-05T05:14:28.845Z,99.99
2018-09-05T05:15:30.782Z,99.99
2018-09-05T05:16:28.743Z,99.99
2018-09-05T05:17:28.812Z,99.99
2018-09-05T05:18:28.763Z,99.99
2018-09-05T05:19:28.813Z,99.99
2018-09-05T05:20:28.758Z,99.99
2018-09-05T05:21:30.743Z,99.99
2018-09-05T05:22:28.797Z,99.99
2018-09-05T05:23:28.863Z,99.99
2018-09-05T05:24:28.786Z,99.99
2018-09-05T05:25:30.784Z,99.99
2018-09-05T05:26:28.817Z,99.99
2018-09-05T05:27:28.785Z,99.99
2018-09-05T05:28:28.780Z,99.99
2018-09-05T05:29:28.795Z,99.99
2018-09-05T05:30:28.782Z,99.99
2018-09-05T05:31:28.780Z,99.99
2018-09-05T05:32:28.801Z,99.99
2018-09-05T05:33:30.784Z,99.99
2018-09-05T05:34:28.768Z,99.99
2018-09-05T05:35:28.772Z,99.99
2018-09-05T05:36:30.776Z,99.99
2018-09-05T05:37:28.778Z,99.99
2018-09-05T05:38:28.792Z,99.99
2018-09-05T05:39:30.786Z,99.99
2018-09-05T05:40:28.759Z,99.99
2018-09-05T05:41:28.789Z,99.99
2018-09-05T05:42:28.757Z,99.99
2018-09-05T05:43:28.769Z,99.99
2018-09-05T05:44:28.779Z,99.99
2018-09-05T05:45:28.750Z,99.99
2018-09-05T05:46:30.738Z,99.99
2018-09-05T05:47:28.771Z,99.99
2018-09-05T05:48:28.778Z,99.99
2018-09-05T05:49:28.757Z,99.99
2018-09-05T05:50:28.745Z,99.99
2018-09-05T05:51:28.740Z,99.99
2018-09-05T05:52:28.779Z,99.99
2018-09-05T05:53:28.749Z,99.99
2018-09-05T05:54:28.775Z,99.99
2018-09-05T05:55:28.750Z,99.99
2018-09-05T05:56:28.738Z,99.99
2018-09-05T05:57:28.753Z,99.99
2018-09-05T05:58:28.730Z,99.99
2018-09-05T05:59:28.743Z,99.99
2018-09-05T06:00:28.733Z,99.99
2018-09-05T06:01:28.728Z,99.99
2018-09-05T06:02:28.747Z,99.99
2018-09-05T06:03:28.754Z,99.99
2018-09-05T06:04:28.746Z,99.99
2018-09-05T06:05:28.734Z,99.99
2018-09-05T06:06:28.744Z,99.99
2018-09-05T06:07:28.728Z,99.99
2018-09-05T06:08:28.731Z,99.99
2018-09-05T06:09:28.752Z,99.99
2018-09-05T06:10:28.745Z,99.99
2018-09-05T06:11:28.749Z,99.99
2018-09-05T06:12:30.712Z,99.99
2018-09-05T06:13:28.707Z,99.99
2018-09-05T06:14:28.772Z,99.99
2018-09-05T06:15:28.771Z,99.99
2018-09-05T06:16:28.709Z,99.99
2018-09-05T06:17:28.788Z,99.99
2018-09-05T06:18:30.697Z,99.99
2018-09-05T06:19:28.734Z,99.99
2018-09-05T06:20:28.713Z,99.99
2018-09-05T06:21:28.708Z,99.99
2018-09-05T06:22:28.731Z,99.99
2018-09-05T06:23:28.694Z,99.99
2018-09-05T06:24:28.717Z,99.99
2018-09-05T06:25:28.695Z,99.99
2018-09-05T06:26:28.700Z,99.99
2018-09-05T06:27:30.712Z,99.99
2018-09-05T06:28:44.710Z,99.99
2018-09-05T06:29:28.718Z,99.99
2018-09-05T06:30:28.722Z,99.99
2018-09-05T06:31:30.703Z,99.99
2018-09-05T06:32:28.666Z,99.99
2018-09-05T06:33:28.713Z,99.99
2018-09-05T06:34:28.692Z,99.99
2018-09-05T06:35:28.707Z,99.99
2018-09-05T06:36:28.721Z,99.99
2018-09-05T06:37:28.690Z,99.99
2018-09-05T06:38:28.710Z,99.99
2018-09-05T06:39:28.702Z,99.99
2018-09-05T06:40:28.708Z,99.99
2018-09-05T06:41:30.698Z,99.99
2018-09-05T06:42:28.707Z,99.99
2018-09-05T06:43:28.717Z,99.99
2018-09-05T06:44:28.683Z,99.99
2018-09-05T06:45:28.759Z,99.99
2018-09-05T06:46:28.684Z,99.99
2018-09-05T06:47:28.676Z,99.99
2018-09-05T06:48:29.664Z,99.99
2018-09-05T06:49:28.700Z,99.99
2018-09-05T06:50:28.677Z,99.99
2018-09-05T06:51:28.839Z,99.99
2018-09-05T06:52:28.650Z,99.99
2018-09-05T06:53:28.694Z,99.99
2018-09-05T06:54:28.657Z,99.99
2018-09-05T06:55:28.664Z,99.99
2018-09-05T06:56:28.687Z,99.99
2018-09-05T06:57:28.657Z,99.99
2018-09-05T06:58:28.656Z,99.99
2018-09-05T06:59:28.677Z,99.99
2018-09-05T07:00:28.682Z,99.99
2018-09-05T07:01:28.679Z,99.99
2018-09-05T07:02:28.661Z,99.99
2018-09-05T07:03:28.678Z,99.99
2018-09-05T07:04:28.648Z,99.99
2018-09-05T07:05:28.658Z,99.99
2018-09-05T07:06:29.639Z,99.99
2018-09-05T07:07:28.648Z,99.99
2018-09-05T07:08:32.655Z,99.99
2018-09-05T07:09:28.660Z,99.99
2018-09-05T07:10:28.653Z,99.99
2018-09-05T07:11:28.639Z,99.99
2018-09-05T07:12:28.641Z,99.99
2018-09-05T07:13:28.665Z,99.99
2018-09-05T07:14:29.708Z,99.99
2018-09-05T07:15:28.661Z,99.99
2018-09-05T07:16:28.666Z,99.99
2018-09-05T07:17:29.685Z,99.99
2018-09-05T07:18:28.673Z,99.99
2018-09-05T07:19:28.649Z,99.99
2018-09-05T07:20:28.691Z,99.99
2018-09-05T07:21:28.738Z,99.99
2018-09-05T07:22:30.660Z,99.99
2018-09-05T07:23:28.629Z,99.99
2018-09-05T07:24:28.638Z,99.99
2018-09-05T07:25:28.645Z,99.99
2018-09-05T07:26:28.641Z,99.84
2018-09-05T07:27:29.703Z,99.99
2018-09-05T07:28:29.627Z,99.99
2018-09-05T07:29:28.694Z,99.99
2018-09-05T07:30:28.850Z,99.99
2018-09-05T07:31:29.455Z,99.99
2018-09-05T07:32:28.658Z,99.99
2018-09-05T07:34:35.479Z,99.99
2018-09-05T07:35:28.640Z,99.99
2018-09-05T07:36:28.649Z,99.30
2018-09-05T07:37:28.628Z,99.35
2018-09-05T07:38:28.613Z,99.35
2018-09-05T07:39:29.607Z,98.97
2018-09-05T07:40:28.683Z,98.19
2018-09-05T07:41:28.649Z,98.97
2018-09-05T07:42:28.642Z,98.58
2018-09-05T07:43:28.631Z,98.68
2018-09-05T07:44:28.646Z,97.72
2018-09-05T07:45:28.625Z,97.72
2018-09-05T07:46:28.617Z,97.04
2018-09-05T07:47:28.610Z,97.33
2018-09-05T07:48:29.624Z,96.85
2018-09-05T07:49:29.653Z,96.85
2018-09-05T07:50:28.662Z,96.70
2018-09-05T07:51:28.683Z,96.70
2018-09-05T07:52:28.645Z,96.80
2018-09-05T07:53:28.672Z,96.32
2018-09-05T07:54:28.671Z,95.26
2018-09-05T07:55:28.611Z,95.26
2018-09-05T07:56:29.658Z,95.36
2018-09-05T07:57:28.622Z,95.45
2018-09-05T07:58:28.633Z,95.16
2018-09-05T07:59:30.660Z,94.15
2018-09-05T08:00:28.612Z,93.38
2018-09-05T08:01:28.655Z,93.76
2018-09-05T08:02:28.624Z,93.43
2018-09-05T08:03:28.635Z,93.96
2018-09-05T08:04:28.622Z,93.76
2018-09-05T08:05:28.625Z,93.48
2018-09-05T08:06:28.626Z,93.57
2018-09-05T08:07:28.631Z,93.28
2018-09-05T08:08:28.624Z,93.66
2018-09-05T08:09:28.632Z,93.76
2018-09-05T08:10:28.622Z,93.86
2018-09-05T08:11:28.635Z,93.66
2018-09-05T08:12:28.611Z,92.61
2018-09-05T08:13:28.618Z,92.32
2018-09-05T08:14:28.634Z,91.30
2018-09-05T08:15:28.624Z,90.97
2018-09-05T08:16:28.632Z,90.30
2018-09-05T08:17:28.630Z,90.00
2018-09-05T08:18:28.593Z,89.62
2018-09-05T08:19:28.620Z,89.76
2018-09-05T08:20:30.617Z,89.95
2018-09-05T08:21:28.635Z,88.51
2018-09-05T08:22:28.641Z,89.47
2018-09-05T08:23:29.602Z,89.57
2018-09-05T08:24:28.661Z,89.47
2018-09-05T08:25:28.643Z,88.60
2018-09-05T08:26:28.626Z,88.79
2018-09-05T08:27:28.647Z,88.79
2018-09-05T08:28:28.623Z,88.99
2018-09-05T08:29:28.642Z,88.36
2018-09-05T08:30:28.612Z,87.88
2018-09-05T08:31:28.615Z,87.68
2018-09-05T08:32:28.615Z,87.49
2018-09-05T08:33:30.636Z,88.26
2018-09-05T08:34:28.639Z,87.49
2018-09-05T08:35:29.024Z,87.10
2018-09-05T08:36:28.983Z,87.10
2018-09-05T08:37:28.900Z,86.52
2018-09-05T08:38:28.848Z,85.37
2018-09-05T08:39:29.641Z,85.94
2018-09-05T08:40:30.625Z,85.56
2018-09-05T08:41:28.784Z,86.24
2018-09-05T08:42:28.629Z,86.43
2018-09-05T08:43:30.643Z,86.86
2018-09-05T08:44:28.756Z,86.91
2018-09-05T08:45:28.981Z,86.18
2018-09-05T08:46:28.682Z,85.94
2018-09-05T08:47:28.675Z,86.28
2018-09-05T08:48:28.843Z,85.60
2018-09-05T08:49:28.649Z,85.60
2018-09-05T08:50:28.644Z,85.41
2018-09-05T08:51:29.654Z,85.12
2018-09-05T08:52:28.685Z,85.70
2018-09-05T08:53:29.655Z,85.50
2018-09-05T08:54:28.627Z,85.41
2018-09-05T08:55:28.738Z,85.60
2018-09-05T08:56:29.897Z,84.54
2018-09-05T08:57:30.637Z,84.35
2018-09-05T08:58:29.633Z,84.25
2018-09-05T08:59:28.656Z,83.48
2018-09-05T09:00:28.625Z,83.48
2018-09-05T09:01:28.647Z,84.39
2018-09-05T09:02:28.661Z,83.52
2018-09-05T09:03:28.671Z,83.33
2018-09-05T09:05:35.500Z,83.23
2018-09-05T09:06:28.626Z,83.23
2018-09-05T09:07:28.632Z,83.14
2018-09-05T09:08:29.644Z,84.48
2018-09-05T09:09:28.640Z,85.64
2018-09-05T09:10:28.665Z,85.84
2018-09-05T09:11:28.660Z,85.55
2018-09-05T09:12:28.671Z,84.97
2018-09-05T09:13:29.510Z,84.68
2018-09-05T09:14:52.372Z,84.24
2018-09-05T09:15:28.664Z,83.23
2018-09-05T09:16:28.674Z,83.37
2018-09-05T09:17:28.716Z,82.31
2018-09-05T09:18:31.511Z,82.60
2018-09-05T09:19:28.660Z,82.40
2018-09-05T09:20:28.635Z,82.40
2018-09-05T09:21:28.702Z,82.02
2018-09-05T09:22:28.631Z,81.53
2018-09-05T09:23:28.685Z,81.24
2018-09-05T09:24:29.501Z,81.92
2018-09-05T09:25:29.519Z,82.21
2018-09-05T09:26:28.632Z,81.53
2018-09-05T09:27:29.503Z,81.24
2018-09-05T09:28:28.639Z,80.86
2018-09-05T09:29:28.669Z,80.66
2018-09-05T09:30:28.656Z,80.66
2018-09-05T09:31:28.648Z,79.64
2018-09-05T09:32:28.666Z,78.34
2018-09-05T09:33:29.326Z,78.67
2018-09-05T09:34:28.668Z,80.12
2018-09-05T09:35:28.769Z,80.03
2018-09-05T09:36:30.653Z,80.90
2018-09-05T09:38:28.691Z,79.16
2018-09-05T09:39:28.673Z,78.87
2018-09-05T09:40:28.671Z,77.51
2018-09-05T09:41:30.626Z,77.13
2018-09-05T09:42:28.645Z,77.22
2018-09-05T09:43:35.384Z,77.03
2018-09-05T09:44:30.650Z,77.13
2018-09-05T09:45:30.662Z,76.97
2018-09-05T09:46:28.744Z,76.59
2018-09-05T09:47:28.716Z,76.59
2018-09-05T09:48:28.679Z,76.39
2018-09-05T09:49:28.670Z,75.81
2018-09-05T09:50:30.663Z,75.43
2018-09-05T09:51:30.703Z,74.55
2018-09-05T09:52:28.688Z,73.78
2018-09-05T09:53:29.662Z,73.01
2018-09-05T09:54:28.672Z,73.01
2018-09-05T09:55:30.689Z,73.10
2018-09-05T09:56:28.705Z,73.30
2018-09-05T09:57:28.681Z,73.82
2018-09-05T09:58:29.695Z,72.95
2018-09-05T09:59:30.694Z,73.04
2018-09-05T10:00:28.696Z,73.14
2018-09-05T10:01:29.692Z,72.66
2018-09-05T10:02:28.669Z,72.95
2018-09-05T10:03:30.835Z,72.27
2018-09-05T10:04:28.679Z,72.36
2018-09-05T10:05:30.687Z,71.69
2018-09-05T10:06:30.645Z,70.95
2018-09-05T10:07:28.712Z,70.95
2018-09-05T10:08:49.578Z,71.34
2018-09-05T10:09:30.693Z,70.95
2018-09-05T10:10:29.648Z,70.86
2018-09-05T10:11:29.728Z,70.76
2018-09-05T10:12:29.504Z,70.66
2018-09-05T10:13:28.707Z,70.37
2018-09-05T10:14:28.736Z,70.76
2018-09-05T10:15:35.502Z,71.04
2018-09-05T10:16:47.533Z,70.89
2018-09-05T10:17:28.745Z,69.43
2018-09-05T10:18:28.723Z,69.34
2018-09-05T10:19:28.725Z,69.53
2018-09-05T10:20:36.306Z,68.95
2018-09-05T10:21:56.529Z,68.37
2018-09-05T10:22:28.801Z,68.18
2018-09-05T10:23:28.738Z,68.37
2018-09-05T10:24:28.735Z,68.47
2018-09-05T10:25:28.738Z,68.37
2018-09-05T10:26:28.718Z,68.30
2018-09-05T10:27:30.688Z,68.21
2018-09-05T10:28:28.727Z,66.95
2018-09-05T10:29:28.723Z,67.21
2018-09-05T10:30:28.707Z,67.05
2018-09-05T10:31:28.735Z,66.27
2018-09-05T10:32:28.684Z,66.47
2018-09-05T10:33:28.735Z,65.89
2018-09-05T10:34:32.742Z,64.85
2018-09-05T10:35:52.564Z,65.05
2018-09-05T10:36:28.738Z,65.05
2018-09-05T10:37:30.760Z,64.37
2018-09-05T10:38:30.752Z,64.53
2018-09-05T10:39:28.749Z,64.85
2018-09-05T10:40:31.541Z,65.34
2018-09-05T10:41:28.711Z,65.43
2018-09-05T10:42:28.730Z,65.05
2018-09-05T10:43:28.767Z,64.65
2018-09-05T10:44:31.562Z,64.47
2018-09-05T10:45:35.541Z,64.85
2018-09-05T10:46:35.643Z,64.78
2018-09-05T10:47:37.364Z,64.50
2018-09-05T10:48:30.516Z,63.95
2018-09-05T10:49:28.762Z,63.26
2018-09-05T10:50:31.716Z,62.39
2018-09-05T10:53:14.877Z,62.59
2018-09-05T10:55:26.528Z,62.10
2018-09-05T10:56:16.411Z,61.81
2018-09-05T11:01:40.712Z,61.25
2018-09-05T11:05:29.067Z,59.74
2018-09-05T11:07:48.930Z,59.34
2018-09-05T11:08:41.753Z,59.57
2018-09-05T11:10:37.637Z,58.98
2018-09-05T11:13:19.643Z,58.89
2018-09-05T11:13:51.283Z,59.18
2018-09-05T11:17:19.366Z,57.72
2018-09-05T11:18:19.321Z,58.21
2018-09-05T11:20:36.331Z,56.97
2018-09-05T11:22:29.419Z,56.68
2018-09-05T11:23:28.770Z,56.41
2018-09-05T11:25:25.426Z,56.32
2018-09-05T11:26:40.193Z,55.15
2018-09-05T11:27:25.445Z,55.18
2018-09-05T11:28:46.376Z,54.50
2018-09-05T11:29:25.431Z,54.01
2018-09-05T11:30:32.220Z,55.01
2018-09-05T11:31:26.431Z,54.23
2018-09-05T11:32:53.090Z,54.03
2018-09-05T11:34:01.203Z,53.85
2018-09-05T11:34:47.097Z,53.48
2018-09-05T11:35:26.468Z,52.53
2018-09-05T11:36:25.495Z,52.36
2018-09-05T11:37:25.506Z,50.51
2018-09-05T11:38:46.374Z,50.99
2018-09-05T11:39:47.099Z,49.71
2018-09-05T11:40:53.103Z,50.51
2018-09-05T11:42:01.179Z,49.34
2018-09-05T11:42:25.503Z,49.15
2018-09-05T11:43:25.529Z,48.97
2018-09-05T11:44:25.580Z,48.71
2018-09-05T11:45:46.487Z,48.26
2018-09-05T11:46:26.578Z,47.02
2018-09-05T11:47:26.649Z,46.82
2018-09-05T11:48:25.633Z,45.97
2018-09-05T11:49:26.661Z,44.89
2018-09-05T11:50:28.583Z,45.10
2018-09-05T11:51:25.648Z,44.42
2018-09-05T11:52:25.618Z,44.46
2018-09-05T11:53:31.217Z,42.91
2018-09-05T11:54:29.027Z,41.84
2018-09-05T11:55:26.768Z,42.45
2018-09-05T11:56:25.656Z,41.29
2018-09-05T11:57:28.766Z,40.37
2018-09-05T11:58:25.727Z,38.74
2018-09-05T11:59:26.515Z,38.44
2018-09-05T12:00:25.727Z,37.76
2018-09-05T12:01:25.786Z,37.08
2018-09-05T12:02:25.744Z,37.26
2018-09-05T12:03:28.784Z,37.03
2018-09-05T12:04:25.789Z,35.46
2018-09-05T12:05:32.804Z,36.11
2018-09-05T12:06:25.849Z,34.69
2018-09-05T12:07:25.839Z,33.87
2018-09-05T12:08:25.877Z,33.44
2018-09-05T12:09:26.688Z,32.18
2018-09-05T12:10:40.904Z,32.75
2018-09-05T12:11:26.537Z,32.06
2018-09-05T12:12:25.951Z,31.68
2018-09-05T12:13:28.902Z,31.51
2018-09-05T12:14:33.021Z,30.16
2018-09-05T12:15:26.004Z,29.86
2018-09-05T12:16:26.965Z,28.81
2018-09-05T12:17:33.014Z,28.15
2018-09-05T12:18:25.972Z,28.06
2018-09-05T12:19:33.012Z,27.47
2018-09-05T12:20:26.092Z,27.30
2018-09-05T12:21:26.051Z,27.11
2018-09-05T12:22:27.064Z,26.39
2018-09-05T12:23:26.116Z,25.79
2018-09-05T12:24:26.151Z,26.61
2018-09-05T12:25:26.173Z,25.80
2018-09-05T12:27:59.641Z,25.34
2018-09-05T12:28:59.486Z,25.14
2018-09-05T12:30:54.981Z,23.99
2018-09-05T12:33:09.117Z,22.61
2018-09-05T12:35:45.518Z,21.12
2018-09-05T12:36:23.801Z,21.27
2018-09-05T12:38:29.897Z,21.06
2018-09-05T12:39:18.512Z,21.28
2018-09-05T12:41:13.236Z,20.95
2018-09-05T12:42:13.240Z,20.46
2018-09-05T12:44:07.972Z,19.16
2018-09-05T12:45:07.987Z,19.36
2018-09-05T12:47:02.722Z,19.33
2018-09-05T12:48:02.721Z,20.41
2018-09-05T12:49:57.367Z,21.65
2018-09-05T12:50:57.432Z,21.63
2018-09-05T12:51:57.465Z,22.53
2018-09-05T12:52:57.469Z,22.16
2018-09-05T12:53:57.515Z,22.16
2018-09-05T12:54:57.388Z,21.53
2018-09-05T12:55:57.483Z,22.03
2018-09-05T12:56:57.501Z,22.03
2018-09-05T12:57:57.566Z,22.42
2018-09-05T12:58:57.621Z,22.89
2018-09-05T12:59:57.471Z,23.28
2018-09-05T13:00:57.571Z,24.16
2018-09-05T13:01:57.633Z,23.65
2018-09-05T13:03:07.166Z,25.21
2018-09-05T13:03:57.685Z,26.17
2018-09-05T13:05:12.575Z,27.04
2018-09-05T13:05:57.698Z,27.13
2018-09-05T13:07:00.674Z,27.01
2018-09-05T13:07:57.707Z,28.55
2018-09-05T13:08:57.769Z,29.24
2018-09-05T13:09:57.786Z,28.64
2018-09-05T13:10:57.730Z,28.55
2018-09-05T13:12:18.822Z,28.16
2018-09-05T13:12:57.769Z,28.64
2018-09-05T13:14:12.845Z,28.14
2018-09-05T13:15:00.865Z,28.75
2018-09-05T13:15:57.866Z,28.92
2018-09-05T13:18:21.606Z,29.74
2018-09-05T13:18:52.452Z,29.14
2018-09-05T13:21:08.992Z,29.71
2018-09-05T13:23:05.350Z,29.00
2018-09-05T13:24:01.990Z,29.03
2018-09-05T13:25:56.583Z,29.41
2018-09-05T13:28:27.605Z,29.41
2018-09-05T13:31:03.285Z,30.02
2018-09-05T13:32:42.693Z,26.39
2018-09-05T13:34:35.544Z,24.77